sensor_id;sensor_type;location;lat;lon;timestamp;P1;durP1;ratioP1;P2;durP2;ratioP2
21103;SDS011;10710;53.398;-1.514;2023-03-09T00:01:38;6.25;;;3.13;;
21103;SDS011;10710;53.398;-1.514;2023-03-09T00:04:05;4.85;;;2.80;;
21103;SDS011;10710;53.398;-1.514;2023-03-09T00:06:31;7.40;;;2.72;;
21103;SDS011;10710;53.398;-1.514;2023-03-09T00:08:57;6.25;;;3.30;;
21103;SDS011;10710;53.398;-1.514;2023-03-09T00:11:23;6.32;;;3.10;;
21103;SDS011;10710;53.398;-1.514;2023-03-09T00:13:50;6.80;;;2.60;;
21103;SDS011;10710;53.398;-1.514;2023-03-09T00:16:17;7.68;;;3.20;;
21103;SDS011;10710;53.398;-1.514;2023-03-09T00:18:44;7.60;;;3.60;;
21103;SDS011;10710;53.398;-1.514;2023-03-09T00:21:10;7.93;;;2.83;;
21103;SDS011;10710;53.398;-1.514;2023-03-09T00:24:07;5.93;;;2.83;;
21103;SDS011;10710;53.398;-1.514;2023-03-09T00:26:35;6.70;;;2.92;;
21103;SDS011;10710;53.398;-1.514;2023-03-09T00:29:04;8.35;;;3.00;;
21103;SDS011;10710;53.398;-1.514;2023-03-09T00:31:30;5.25;;;3.20;;
21103;SDS011;10710;53.398;-1.514;2023-03-09T00:33:57;5.88;;;3.22;;
21103;SDS011;10710;53.398;-1.514;2023-03-09T00:36:23;5.97;;;2.72;;
21103;SDS011;10710;53.398;-1.514;2023-03-09T00:38:52;5.43;;;3.15;;
21103;SDS011;10710;53.398;-1.514;2023-03-09T00:41:20;5.53;;;2.97;;
21103;SDS011;10710;53.398;-1.514;2023-03-09T00:43:47;6.63;;;3.22;;
21103;SDS011;10710;53.398;-1.514;2023-03-09T00:46:13;8.55;;;2.92;;
21103;SDS011;10710;53.398;-1.514;2023-03-09T00:48:40;10.23;;;3.85;;
21103;SDS011;10710;53.398;-1.514;2023-03-09T00:51:07;6.32;;;3.45;;
21103;SDS011;10710;53.398;-1.514;2023-03-09T00:53:34;8.90;;;3.47;;
21103;SDS011;10710;53.398;-1.514;2023-03-09T00:56:01;7.50;;;3.33;;
21103;SDS011;10710;53.398;-1.514;2023-03-09T00:58:28;7.53;;;3.67;;
21103;SDS011;10710;53.398;-1.514;2023-03-09T01:00:54;9.52;;;4.10;;
21103;SDS011;10710;53.398;-1.514;2023-03-09T01:03:20;8.18;;;3.67;;
21103;SDS011;10710;53.398;-1.514;2023-03-09T01:05:46;6.82;;;3.60;;
21103;SDS011;10710;53.398;-1.514;2023-03-09T01:08:12;9.20;;;3.78;;
21103;SDS011;10710;53.398;-1.514;2023-03-09T01:10:38;9.00;;;3.85;;
21103;SDS011;10710;53.398;-1.514;2023-03-09T01:13:04;8.60;;;4.55;;
21103;SDS011;10710;53.398;-1.514;2023-03-09T01:15:31;7.38;;;3.78;;
21103;SDS011;10710;53.398;-1.514;2023-03-09T01:17:57;10.47;;;4.93;;
21103;SDS011;10710;53.398;-1.514;2023-03-09T01:20:22;10.33;;;4.63;;
21103;SDS011;10710;53.398;-1.514;2023-03-09T01:22:48;17.03;;;4.23;;
21103;SDS011;10710;53.398;-1.514;2023-03-09T01:25:14;11.93;;;4.70;;
21103;SDS011;10710;53.398;-1.514;2023-03-09T01:27:39;12.03;;;4.77;;
21103;SDS011;10710;53.398;-1.514;2023-03-09T01:30:05;10.30;;;4.50;;
21103;SDS011;10710;53.398;-1.514;2023-03-09T01:32:32;9.52;;;4.53;;
21103;SDS011;10710;53.398;-1.514;2023-03-09T01:34:57;12.18;;;4.90;;
21103;SDS011;10710;53.398;-1.514;2023-03-09T01:37:23;9.38;;;4.50;;
21103;SDS011;10710;53.398;-1.514;2023-03-09T01:39:49;11.60;;;4.93;;
21103;SDS011;10710;53.398;-1.514;2023-03-09T01:42:15;12.23;;;4.53;;
21103;SDS011;10710;53.398;-1.514;2023-03-09T01:44:41;9.43;;;4.32;;
21103;SDS011;10710;53.398;-1.514;2023-03-09T01:47:06;10.50;;;4.93;;
21103;SDS011;10710;53.398;-1.514;2023-03-09T01:52:16;12.43;;;4.97;;
21103;SDS011;10710;53.398;-1.514;2023-03-09T01:54:57;10.88;;;5.55;;
21103;SDS011;10710;53.398;-1.514;2023-03-09T01:57:34;13.00;;;5.60;;
21103;SDS011;10710;53.398;-1.514;2023-03-09T02:00:05;13.23;;;5.25;;
21103;SDS011;10710;53.398;-1.514;2023-03-09T02:02:35;14.75;;;5.85;;
21103;SDS011;10710;53.398;-1.514;2023-03-09T02:05:03;13.65;;;5.70;;
21103;SDS011;10710;53.398;-1.514;2023-03-09T02:07:32;16.30;;;5.82;;
21103;SDS011;10710;53.398;-1.514;2023-03-09T02:10:13;12.43;;;5.22;;
21103;SDS011;10710;53.398;-1.514;2023-03-09T02:12:47;13.00;;;5.63;;
21103;SDS011;10710;53.398;-1.514;2023-03-09T02:15:21;11.18;;;5.68;;
21103;SDS011;10710;53.398;-1.514;2023-03-09T02:17:48;19.15;;;5.75;;
21103;SDS011;10710;53.398;-1.514;2023-03-09T02:20:20;11.38;;;4.90;;
21103;SDS011;10710;53.398;-1.514;2023-03-09T02:22:56;9.93;;;4.90;;
21103;SDS011;10710;53.398;-1.514;2023-03-09T02:27:53;10.53;;;5.10;;
21103;SDS011;10710;53.398;-1.514;2023-03-09T02:30:19;15.63;;;5.13;;
21103;SDS011;10710;53.398;-1.514;2023-03-09T02:32:48;14.95;;;4.93;;
21103;SDS011;10710;53.398;-1.514;2023-03-09T02:35:13;14.10;;;4.70;;
21103;SDS011;10710;53.398;-1.514;2023-03-09T02:37:39;10.73;;;4.05;;
21103;SDS011;10710;53.398;-1.514;2023-03-09T02:42:49;10.10;;;5.10;;
21103;SDS011;10710;53.398;-1.514;2023-03-09T02:45:16;12.02;;;4.50;;
21103;SDS011;10710;53.398;-1.514;2023-03-09T02:47:44;6.97;;;3.20;;
21103;SDS011;10710;53.398;-1.514;2023-03-09T02:50:11;7.15;;;3.45;;
21103;SDS011;10710;53.398;-1.514;2023-03-09T02:52:37;9.80;;;3.00;;
21103;SDS011;10710;53.398;-1.514;2023-03-09T02:55:03;7.77;;;3.27;;
21103;SDS011;10710;53.398;-1.514;2023-03-09T02:57:30;9.27;;;3.87;;
21103;SDS011;10710;53.398;-1.514;2023-03-09T02:59:56;9.30;;;3.33;;
21103;SDS011;10710;53.398;-1.514;2023-03-09T03:02:21;6.70;;;2.40;;
21103;SDS011;10710;53.398;-1.514;2023-03-09T03:04:47;5.83;;;3.00;;
21103;SDS011;10710;53.398;-1.514;2023-03-09T03:07:13;7.23;;;2.90;;
21103;SDS011;10710;53.398;-1.514;2023-03-09T03:09:38;6.60;;;2.83;;
21103;SDS011;10710;53.398;-1.514;2023-03-09T03:12:04;7.00;;;2.70;;
21103;SDS011;10710;53.398;-1.514;2023-03-09T03:14:30;4.97;;;2.83;;
21103;SDS011;10710;53.398;-1.514;2023-03-09T03:16:56;10.50;;;2.63;;
21103;SDS011;10710;53.398;-1.514;2023-03-09T03:19:22;7.63;;;3.28;;
21103;SDS011;10710;53.398;-1.514;2023-03-09T03:21:48;6.30;;;2.92;;
21103;SDS011;10710;53.398;-1.514;2023-03-09T03:24:15;6.68;;;2.33;;
21103;SDS011;10710;53.398;-1.514;2023-03-09T03:26:42;5.13;;;2.50;;
21103;SDS011;10710;53.398;-1.514;2023-03-09T03:29:08;5.85;;;2.60;;
21103;SDS011;10710;53.398;-1.514;2023-03-09T03:31:33;5.65;;;2.38;;
21103;SDS011;10710;53.398;-1.514;2023-03-09T03:33:59;4.38;;;2.15;;
21103;SDS011;10710;53.398;-1.514;2023-03-09T03:36:25;5.23;;;2.83;;
21103;SDS011;10710;53.398;-1.514;2023-03-09T03:38:51;5.20;;;2.40;;
21103;SDS011;10710;53.398;-1.514;2023-03-09T03:41:17;5.07;;;2.67;;
21103;SDS011;10710;53.398;-1.514;2023-03-09T03:43:43;4.53;;;2.08;;
21103;SDS011;10710;53.398;-1.514;2023-03-09T03:46:09;4.53;;;2.63;;
21103;SDS011;10710;53.398;-1.514;2023-03-09T03:48:34;4.43;;;2.60;;
21103;SDS011;10710;53.398;-1.514;2023-03-09T03:51:01;3.78;;;2.20;;
21103;SDS011;10710;53.398;-1.514;2023-03-09T03:53:28;8.07;;;2.78;;
21103;SDS011;10710;53.398;-1.514;2023-03-09T03:55:53;4.13;;;2.10;;
21103;SDS011;10710;53.398;-1.514;2023-03-09T03:58:19;4.50;;;2.10;;
21103;SDS011;10710;53.398;-1.514;2023-03-09T04:00:45;3.50;;;2.13;;
21103;SDS011;10710;53.398;-1.514;2023-03-09T04:03:11;4.17;;;1.80;;
21103;SDS011;10710;53.398;-1.514;2023-03-09T04:05:36;2.63;;;1.70;;
21103;SDS011;10710;53.398;-1.514;2023-03-09T04:08:02;5.57;;;2.15;;
21103;SDS011;10710;53.398;-1.514;2023-03-09T04:10:28;4.88;;;2.30;;
21103;SDS011;10710;53.398;-1.514;2023-03-09T04:12:53;6.70;;;2.40;;
21103;SDS011;10710;53.398;-1.514;2023-03-09T04:15:19;3.40;;;2.22;;
21103;SDS011;10710;53.398;-1.514;2023-03-09T04:17:45;4.72;;;2.17;;
21103;SDS011;10710;53.398;-1.514;2023-03-09T04:20:12;5.20;;;2.00;;
21103;SDS011;10710;53.398;-1.514;2023-03-09T04:22:38;4.63;;;2.50;;
21103;SDS011;10710;53.398;-1.514;2023-03-09T04:25:06;6.47;;;2.57;;
21103;SDS011;10710;53.398;-1.514;2023-03-09T04:27:32;4.72;;;2.30;;
21103;SDS011;10710;53.398;-1.514;2023-03-09T04:29:58;6.10;;;2.90;;
21103;SDS011;10710;53.398;-1.514;2023-03-09T04:32:23;6.90;;;2.63;;
21103;SDS011;10710;53.398;-1.514;2023-03-09T04:34:49;5.32;;;2.55;;
21103;SDS011;10710;53.398;-1.514;2023-03-09T04:37:15;4.63;;;2.60;;
21103;SDS011;10710;53.398;-1.514;2023-03-09T04:39:41;4.03;;;2.27;;
21103;SDS011;10710;53.398;-1.514;2023-03-09T04:42:06;4.10;;;2.07;;
21103;SDS011;10710;53.398;-1.514;2023-03-09T04:44:32;4.47;;;2.40;;
21103;SDS011;10710;53.398;-1.514;2023-03-09T04:46:58;5.00;;;2.27;;
21103;SDS011;10710;53.398;-1.514;2023-03-09T04:49:23;6.25;;;2.22;;
21103;SDS011;10710;53.398;-1.514;2023-03-09T04:51:50;7.75;;;2.35;;
21103;SDS011;10710;53.398;-1.514;2023-03-09T04:54:16;4.65;;;2.10;;
21103;SDS011;10710;53.398;-1.514;2023-03-09T04:56:42;3.78;;;2.20;;
21103;SDS011;10710;53.398;-1.514;2023-03-09T04:59:07;3.40;;;1.90;;
21103;SDS011;10710;53.398;-1.514;2023-03-09T05:01:33;3.42;;;2.00;;
21103;SDS011;10710;53.398;-1.514;2023-03-09T05:03:59;3.45;;;2.10;;
21103;SDS011;10710;53.398;-1.514;2023-03-09T05:06:24;4.05;;;1.90;;
21103;SDS011;10710;53.398;-1.514;2023-03-09T05:08:50;5.23;;;2.17;;
21103;SDS011;10710;53.398;-1.514;2023-03-09T05:11:16;2.27;;;1.90;;
21103;SDS011;10710;53.398;-1.514;2023-03-09T05:13:41;3.23;;;1.97;;
21103;SDS011;10710;53.398;-1.514;2023-03-09T05:16:07;2.90;;;1.93;;
21103;SDS011;10710;53.398;-1.514;2023-03-09T05:18:36;4.47;;;1.93;;
21103;SDS011;10710;53.398;-1.514;2023-03-09T05:21:05;4.38;;;2.15;;
21103;SDS011;10710;53.398;-1.514;2023-03-09T05:23:33;2.75;;;2.03;;
21103;SDS011;10710;53.398;-1.514;2023-03-09T05:25:59;3.25;;;1.95;;
21103;SDS011;10710;53.398;-1.514;2023-03-09T05:28:26;3.53;;;1.98;;
21103;SDS011;10710;53.398;-1.514;2023-03-09T05:30:53;2.55;;;1.90;;
21103;SDS011;10710;53.398;-1.514;2023-03-09T05:33:19;2.73;;;1.73;;
21103;SDS011;10710;53.398;-1.514;2023-03-09T05:35:44;4.97;;;2.33;;
21103;SDS011;10710;53.398;-1.514;2023-03-09T05:38:10;3.63;;;1.97;;
21103;SDS011;10710;53.398;-1.514;2023-03-09T05:40:36;5.83;;;2.27;;
21103;SDS011;10710;53.398;-1.514;2023-03-09T05:43:02;4.55;;;2.25;;
21103;SDS011;10710;53.398;-1.514;2023-03-09T05:45:28;4.67;;;2.43;;
21103;SDS011;10710;53.398;-1.514;2023-03-09T05:47:53;2.67;;;1.97;;
21103;SDS011;10710;53.398;-1.514;2023-03-09T05:50:19;3.77;;;2.23;;
21103;SDS011;10710;53.398;-1.514;2023-03-09T05:52:45;3.80;;;2.17;;
21103;SDS011;10710;53.398;-1.514;2023-03-09T05:55:10;3.97;;;2.25;;
21103;SDS011;10710;53.398;-1.514;2023-03-09T05:57:37;3.28;;;2.13;;
21103;SDS011;10710;53.398;-1.514;2023-03-09T06:00:03;3.70;;;1.83;;
21103;SDS011;10710;53.398;-1.514;2023-03-09T06:02:32;6.25;;;2.05;;
21103;SDS011;10710;53.398;-1.514;2023-03-09T06:04:58;2.90;;;2.13;;
21103;SDS011;10710;53.398;-1.514;2023-03-09T06:07:24;7.57;;;3.53;;
21103;SDS011;10710;53.398;-1.514;2023-03-09T06:09:52;9.73;;;3.67;;
21103;SDS011;10710;53.398;-1.514;2023-03-09T06:12:18;5.37;;;3.30;;
21103;SDS011;10710;53.398;-1.514;2023-03-09T06:14:46;5.70;;;3.23;;
21103;SDS011;10710;53.398;-1.514;2023-03-09T06:17:13;4.40;;;3.35;;
21103;SDS011;10710;53.398;-1.514;2023-03-09T06:19:39;9.75;;;3.65;;
21103;SDS011;10710;53.398;-1.514;2023-03-09T06:22:05;9.43;;;3.10;;
21103;SDS011;10710;53.398;-1.514;2023-03-09T06:24:31;4.90;;;2.40;;
21103;SDS011;10710;53.398;-1.514;2023-03-09T06:27:00;5.25;;;2.38;;
21103;SDS011;10710;53.398;-1.514;2023-03-09T06:29:26;6.47;;;2.42;;
21103;SDS011;10710;53.398;-1.514;2023-03-09T06:31:52;6.35;;;2.15;;
21103;SDS011;10710;53.398;-1.514;2023-03-09T06:34:17;3.92;;;2.45;;
21103;SDS011;10710;53.398;-1.514;2023-03-09T06:36:43;5.53;;;2.57;;
21103;SDS011;10710;53.398;-1.514;2023-03-09T06:39:09;2.77;;;2.07;;
21103;SDS011;10710;53.398;-1.514;2023-03-09T06:41:35;7.13;;;2.50;;
21103;SDS011;10710;53.398;-1.514;2023-03-09T06:44:01;3.60;;;2.20;;
21103;SDS011;10710;53.398;-1.514;2023-03-09T06:46:27;6.20;;;2.78;;
21103;SDS011;10710;53.398;-1.514;2023-03-09T06:48:53;8.65;;;2.22;;
21103;SDS011;10710;53.398;-1.514;2023-03-09T06:51:19;6.85;;;2.65;;
21103;SDS011;10710;53.398;-1.514;2023-03-09T06:53:45;3.88;;;2.22;;
21103;SDS011;10710;53.398;-1.514;2023-03-09T06:56:11;6.47;;;2.15;;
21103;SDS011;10710;53.398;-1.514;2023-03-09T06:58:37;4.60;;;2.20;;
21103;SDS011;10710;53.398;-1.514;2023-03-09T07:01:07;4.35;;;2.58;;
21103;SDS011;10710;53.398;-1.514;2023-03-09T07:03:37;7.37;;;2.43;;
21103;SDS011;10710;53.398;-1.514;2023-03-09T07:06:04;4.97;;;3.13;;
21103;SDS011;10710;53.398;-1.514;2023-03-09T07:08:30;8.93;;;2.40;;
21103;SDS011;10710;53.398;-1.514;2023-03-09T07:10:55;7.30;;;2.17;;
21103;SDS011;10710;53.398;-1.514;2023-03-09T07:13:21;13.40;;;2.50;;
21103;SDS011;10710;53.398;-1.514;2023-03-09T07:15:47;4.10;;;2.30;;
21103;SDS011;10710;53.398;-1.514;2023-03-09T07:18:13;5.07;;;2.30;;
21103;SDS011;10710;53.398;-1.514;2023-03-09T07:20:39;5.35;;;2.63;;
21103;SDS011;10710;53.398;-1.514;2023-03-09T07:23:06;6.18;;;2.53;;
21103;SDS011;10710;53.398;-1.514;2023-03-09T07:25:33;4.33;;;2.67;;
21103;SDS011;10710;53.398;-1.514;2023-03-09T07:28:01;4.38;;;2.58;;
21103;SDS011;10710;53.398;-1.514;2023-03-09T07:30:28;5.97;;;2.57;;
21103;SDS011;10710;53.398;-1.514;2023-03-09T07:32:58;4.40;;;3.00;;
21103;SDS011;10710;53.398;-1.514;2023-03-09T07:35:25;6.25;;;3.05;;
21103;SDS011;10710;53.398;-1.514;2023-03-09T07:37:51;8.82;;;2.85;;
21103;SDS011;10710;53.398;-1.514;2023-03-09T07:40:17;9.63;;;3.20;;
21103;SDS011;10710;53.398;-1.514;2023-03-09T07:42:47;7.03;;;3.45;;
21103;SDS011;10710;53.398;-1.514;2023-03-09T07:45:15;6.50;;;3.13;;
21103;SDS011;10710;53.398;-1.514;2023-03-09T07:47:41;6.35;;;3.25;;
21103;SDS011;10710;53.398;-1.514;2023-03-09T07:50:07;5.70;;;3.22;;
21103;SDS011;10710;53.398;-1.514;2023-03-09T07:52:33;5.53;;;3.53;;
21103;SDS011;10710;53.398;-1.514;2023-03-09T07:55:00;4.80;;;2.85;;
21103;SDS011;10710;53.398;-1.514;2023-03-09T07:57:30;8.93;;;3.40;;
21103;SDS011;10710;53.398;-1.514;2023-03-09T07:59:57;9.77;;;3.72;;
21103;SDS011;10710;53.398;-1.514;2023-03-09T08:02:23;7.75;;;3.25;;
21103;SDS011;10710;53.398;-1.514;2023-03-09T08:04:49;9.27;;;3.67;;
21103;SDS011;10710;53.398;-1.514;2023-03-09T08:07:15;9.43;;;3.42;;
21103;SDS011;10710;53.398;-1.514;2023-03-09T08:09:40;6.67;;;3.63;;
21103;SDS011;10710;53.398;-1.514;2023-03-09T08:12:07;7.30;;;4.33;;
21103;SDS011;10710;53.398;-1.514;2023-03-09T08:14:33;6.00;;;3.40;;
21103;SDS011;10710;53.398;-1.514;2023-03-09T08:16:59;6.80;;;3.53;;
21103;SDS011;10710;53.398;-1.514;2023-03-09T08:19:26;7.43;;;3.38;;
21103;SDS011;10710;53.398;-1.514;2023-03-09T08:21:52;6.38;;;4.05;;
21103;SDS011;10710;53.398;-1.514;2023-03-09T08:24:18;5.38;;;3.67;;
21103;SDS011;10710;53.398;-1.514;2023-03-09T08:26:44;10.50;;;4.40;;
21103;SDS011;10710;53.398;-1.514;2023-03-09T08:29:10;8.53;;;3.83;;
21103;SDS011;10710;53.398;-1.514;2023-03-09T08:31:35;11.50;;;5.30;;
21103;SDS011;10710;53.398;-1.514;2023-03-09T08:34:02;8.67;;;4.30;;
21103;SDS011;10710;53.398;-1.514;2023-03-09T08:36:29;9.63;;;4.53;;
21103;SDS011;10710;53.398;-1.514;2023-03-09T08:38:55;5.85;;;3.92;;
21103;SDS011;10710;53.398;-1.514;2023-03-09T08:41:23;8.53;;;4.93;;
21103;SDS011;10710;53.398;-1.514;2023-03-09T08:43:49;15.95;;;6.00;;
21103;SDS011;10710;53.398;-1.514;2023-03-09T08:46:15;9.50;;;4.30;;
21103;SDS011;10710;53.398;-1.514;2023-03-09T08:48:42;9.60;;;5.03;;
21103;SDS011;10710;53.398;-1.514;2023-03-09T08:51:08;10.60;;;5.32;;
21103;SDS011;10710;53.398;-1.514;2023-03-09T08:53:35;12.75;;;6.03;;
21103;SDS011;10710;53.398;-1.514;2023-03-09T08:56:03;14.52;;;5.43;;
21103;SDS011;10710;53.398;-1.514;2023-03-09T08:58:31;13.73;;;5.55;;
21103;SDS011;10710;53.398;-1.514;2023-03-09T09:00:59;17.88;;;5.15;;
21103;SDS011;10710;53.398;-1.514;2023-03-09T09:03:25;8.95;;;4.28;;
21103;SDS011;10710;53.398;-1.514;2023-03-09T09:05:52;10.87;;;5.03;;
21103;SDS011;10710;53.398;-1.514;2023-03-09T09:08:18;9.55;;;4.65;;
21103;SDS011;10710;53.398;-1.514;2023-03-09T09:10:44;11.88;;;6.07;;
21103;SDS011;10710;53.398;-1.514;2023-03-09T09:13:10;12.60;;;5.70;;
21103;SDS011;10710;53.398;-1.514;2023-03-09T09:15:36;12.70;;;5.23;;
21103;SDS011;10710;53.398;-1.514;2023-03-09T09:18:04;13.18;;;5.32;;
21103;SDS011;10710;53.398;-1.514;2023-03-09T09:20:31;11.48;;;4.82;;
21103;SDS011;10710;53.398;-1.514;2023-03-09T09:22:57;9.30;;;4.80;;
21103;SDS011;10710;53.398;-1.514;2023-03-09T09:25:23;10.43;;;5.30;;
21103;SDS011;10710;53.398;-1.514;2023-03-09T09:27:49;11.97;;;5.10;;
21103;SDS011;10710;53.398;-1.514;2023-03-09T09:30:16;13.30;;;5.10;;
21103;SDS011;10710;53.398;-1.514;2023-03-09T09:32:43;10.52;;;4.90;;
21103;SDS011;10710;53.398;-1.514;2023-03-09T09:35:09;15.10;;;5.25;;
21103;SDS011;10710;53.398;-1.514;2023-03-09T09:37:39;17.80;;;6.03;;
21103;SDS011;10710;53.398;-1.514;2023-03-09T09:40:09;14.20;;;5.65;;
21103;SDS011;10710;53.398;-1.514;2023-03-09T09:42:42;14.23;;;6.05;;
21103;SDS011;10710;53.398;-1.514;2023-03-09T09:48:12;12.40;;;4.80;;
21103;SDS011;10710;53.398;-1.514;2023-03-09T09:53:56;10.82;;;5.20;;
21103;SDS011;10710;53.398;-1.514;2023-03-09T09:56:44;10.80;;;5.35;;
21103;SDS011;10710;53.398;-1.514;2023-03-09T09:59:15;10.10;;;4.97;;
21103;SDS011;10710;53.398;-1.514;2023-03-09T10:04:21;10.98;;;5.70;;
21103;SDS011;10710;53.398;-1.514;2023-03-09T10:06:57;7.90;;;4.43;;
21103;SDS011;10710;53.398;-1.514;2023-03-09T10:09:28;7.78;;;4.00;;
21103;SDS011;10710;53.398;-1.514;2023-03-09T10:11:58;10.93;;;4.63;;
21103;SDS011;10710;53.398;-1.514;2023-03-09T10:19:38;8.65;;;4.40;;
21103;SDS011;10710;53.398;-1.514;2023-03-09T10:24:41;7.25;;;3.83;;
21103;SDS011;10710;53.398;-1.514;2023-03-09T10:32:46;7.07;;;3.92;;
21103;SDS011;10710;53.398;-1.514;2023-03-09T10:38:14;8.55;;;4.22;;
21103;SDS011;10710;53.398;-1.514;2023-03-09T10:43:17;12.17;;;4.27;;
21103;SDS011;10710;53.398;-1.514;2023-03-09T10:45:48;6.95;;;3.30;;
21103;SDS011;10710;53.398;-1.514;2023-03-09T10:48:24;5.20;;;3.10;;
21103;SDS011;10710;53.398;-1.514;2023-03-09T10:51:00;5.53;;;3.07;;
21103;SDS011;10710;53.398;-1.514;2023-03-09T10:58:36;6.45;;;2.97;;
21103;SDS011;10710;53.398;-1.514;2023-03-09T11:01:03;6.50;;;3.78;;
21103;SDS011;10710;53.398;-1.514;2023-03-09T11:06:11;9.98;;;3.88;;
21103;SDS011;10710;53.398;-1.514;2023-03-09T11:08:43;6.78;;;3.53;;
21103;SDS011;10710;53.398;-1.514;2023-03-09T11:11:21;8.77;;;4.22;;
21103;SDS011;10710;53.398;-1.514;2023-03-09T11:13:50;7.07;;;3.47;;
21103;SDS011;10710;53.398;-1.514;2023-03-09T11:16:24;7.85;;;3.53;;
21103;SDS011;10710;53.398;-1.514;2023-03-09T11:24:23;11.60;;;3.70;;
21103;SDS011;10710;53.398;-1.514;2023-03-09T11:32:07;6.50;;;3.40;;
21103;SDS011;10710;53.398;-1.514;2023-03-09T11:34:35;5.55;;;2.63;;
21103;SDS011;10710;53.398;-1.514;2023-03-09T11:42:45;5.40;;;2.72;;
21103;SDS011;10710;53.398;-1.514;2023-03-09T11:44:55;12.23;;;3.00;;
21103;SDS011;10710;53.398;-1.514;2023-03-09T11:47:32;5.47;;;3.13;;
21103;SDS011;10710;53.398;-1.514;2023-03-09T11:50:11;5.75;;;2.85;;
21103;SDS011;10710;53.398;-1.514;2023-03-09T11:52:46;4.57;;;2.33;;
21103;SDS011;10710;53.398;-1.514;2023-03-09T11:55:18;5.75;;;2.88;;
21103;SDS011;10710;53.398;-1.514;2023-03-09T11:57:51;7.13;;;2.70;;
21103;SDS011;10710;53.398;-1.514;2023-03-09T12:00:22;6.25;;;3.33;;
21103;SDS011;10710;53.398;-1.514;2023-03-09T12:05:28;6.13;;;2.80;;
21103;SDS011;10710;53.398;-1.514;2023-03-09T12:10:50;4.90;;;2.13;;
21103;SDS011;10710;53.398;-1.514;2023-03-09T12:13:28;5.20;;;2.42;;
21103;SDS011;10710;53.398;-1.514;2023-03-09T12:16:01;9.52;;;3.03;;
21103;SDS011;10710;53.398;-1.514;2023-03-09T12:18:29;6.10;;;2.63;;
21103;SDS011;10710;53.398;-1.514;2023-03-09T12:20:59;6.13;;;2.50;;
21103;SDS011;10710;53.398;-1.514;2023-03-09T12:28:28;3.55;;;2.03;;
21103;SDS011;10710;53.398;-1.514;2023-03-09T12:30:54;3.85;;;2.28;;
21103;SDS011;10710;53.398;-1.514;2023-03-09T12:36:39;7.05;;;2.17;;
21103;SDS011;10710;53.398;-1.514;2023-03-09T12:42:00;4.82;;;1.77;;
21103;SDS011;10710;53.398;-1.514;2023-03-09T12:49:46;4.93;;;2.10;;
21103;SDS011;10710;53.398;-1.514;2023-03-09T12:52:28;4.47;;;2.30;;
21103;SDS011;10710;53.398;-1.514;2023-03-09T12:55:12;5.05;;;2.38;;
21103;SDS011;10710;53.398;-1.514;2023-03-09T12:57:41;9.30;;;3.00;;
21103;SDS011;10710;53.398;-1.514;2023-03-09T13:00:15;4.88;;;2.33;;
21103;SDS011;10710;53.398;-1.514;2023-03-09T13:02:48;4.27;;;2.50;;
21103;SDS011;10710;53.398;-1.514;2023-03-09T13:08:15;3.67;;;2.42;;
21103;SDS011;10710;53.398;-1.514;2023-03-09T13:10:44;4.85;;;2.60;;
21103;SDS011;10710;53.398;-1.514;2023-03-09T13:16:34;7.45;;;2.88;;
21103;SDS011;10710;53.398;-1.514;2023-03-09T13:29:48;8.17;;;3.10;;
21103;SDS011;10710;53.398;-1.514;2023-03-09T13:33:03;5.78;;;2.65;;
21103;SDS011;10710;53.398;-1.514;2023-03-09T13:35:17;4.43;;;2.45;;
21103;SDS011;10710;53.398;-1.514;2023-03-09T13:37:57;5.13;;;2.60;;
21103;SDS011;10710;53.398;-1.514;2023-03-09T13:40:29;4.18;;;2.05;;
21103;SDS011;10710;53.398;-1.514;2023-03-09T13:43:09;3.80;;;2.30;;
21103;SDS011;10710;53.398;-1.514;2023-03-09T13:45:42;11.55;;;4.68;;
21103;SDS011;10710;53.398;-1.514;2023-03-09T13:48:21;5.00;;;2.67;;
21103;SDS011;10710;53.398;-1.514;2023-03-09T13:50:46;7.47;;;2.55;;
21103;SDS011;10710;53.398;-1.514;2023-03-09T13:55:52;5.05;;;2.63;;
21103;SDS011;10710;53.398;-1.514;2023-03-09T13:58:20;3.97;;;2.15;;
21103;SDS011;10710;53.398;-1.514;2023-03-09T14:00:53;4.60;;;2.05;;
21103;SDS011;10710;53.398;-1.514;2023-03-09T14:03:21;5.72;;;2.83;;
21103;SDS011;10710;53.398;-1.514;2023-03-09T14:05:56;3.88;;;2.30;;
21103;SDS011;10710;53.398;-1.514;2023-03-09T14:08:22;2.58;;;1.80;;
21103;SDS011;10710;53.398;-1.514;2023-03-09T14:10:50;12.73;;;5.70;;
21103;SDS011;10710;53.398;-1.514;2023-03-09T14:13:17;7.40;;;2.15;;
21103;SDS011;10710;53.398;-1.514;2023-03-09T14:16:06;5.13;;;2.33;;
21103;SDS011;10710;53.398;-1.514;2023-03-09T14:18:34;6.28;;;2.58;;
21103;SDS011;10710;53.398;-1.514;2023-03-09T14:21:00;11.65;;;3.92;;
21103;SDS011;10710;53.398;-1.514;2023-03-09T14:23:35;7.82;;;2.50;;
21103;SDS011;10710;53.398;-1.514;2023-03-09T14:26:04;8.10;;;3.00;;
21103;SDS011;10710;53.398;-1.514;2023-03-09T14:28:32;3.33;;;1.60;;
21103;SDS011;10710;53.398;-1.514;2023-03-09T14:36:41;3.63;;;2.03;;
21103;SDS011;10710;53.398;-1.514;2023-03-09T14:39:22;4.68;;;2.00;;
21103;SDS011;10710;53.398;-1.514;2023-03-09T14:47:36;5.57;;;1.80;;
21103;SDS011;10710;53.398;-1.514;2023-03-09T14:50:03;3.42;;;1.67;;
21103;SDS011;10710;53.398;-1.514;2023-03-09T14:52:29;3.58;;;1.60;;
21103;SDS011;10710;53.398;-1.514;2023-03-09T14:54:57;4.97;;;1.88;;
21103;SDS011;10710;53.398;-1.514;2023-03-09T14:57:25;3.92;;;2.25;;
21103;SDS011;10710;53.398;-1.514;2023-03-09T14:59:52;2.35;;;1.60;;
21103;SDS011;10710;53.398;-1.514;2023-03-09T15:02:18;3.88;;;1.80;;
21103;SDS011;10710;53.398;-1.514;2023-03-09T15:04:45;4.05;;;2.05;;
21103;SDS011;10710;53.398;-1.514;2023-03-09T15:07:15;3.22;;;1.83;;
21103;SDS011;10710;53.398;-1.514;2023-03-09T15:09:42;3.50;;;1.80;;
21103;SDS011;10710;53.398;-1.514;2023-03-09T15:12:12;7.90;;;2.22;;
21103;SDS011;10710;53.398;-1.514;2023-03-09T15:14:41;2.47;;;2.00;;
21103;SDS011;10710;53.398;-1.514;2023-03-09T15:17:09;5.78;;;2.22;;
21103;SDS011;10710;53.398;-1.514;2023-03-09T15:19:42;3.78;;;2.28;;
21103;SDS011;10710;53.398;-1.514;2023-03-09T15:22:12;3.93;;;2.43;;
21103;SDS011;10710;53.398;-1.514;2023-03-09T15:24:42;3.85;;;2.03;;
21103;SDS011;10710;53.398;-1.514;2023-03-09T15:27:17;9.05;;;3.92;;
21103;SDS011;10710;53.398;-1.514;2023-03-09T15:29:48;4.47;;;2.40;;
21103;SDS011;10710;53.398;-1.514;2023-03-09T15:32:17;5.70;;;2.50;;
21103;SDS011;10710;53.398;-1.514;2023-03-09T15:34:45;3.45;;;2.17;;
21103;SDS011;10710;53.398;-1.514;2023-03-09T15:37:14;3.07;;;1.93;;
21103;SDS011;10710;53.398;-1.514;2023-03-09T15:39:46;4.65;;;1.75;;
21103;SDS011;10710;53.398;-1.514;2023-03-09T15:42:17;3.03;;;2.08;;
21103;SDS011;10710;53.398;-1.514;2023-03-09T15:44:47;3.63;;;2.33;;
21103;SDS011;10710;53.398;-1.514;2023-03-09T15:47:18;3.83;;;2.13;;
21103;SDS011;10710;53.398;-1.514;2023-03-09T15:49:44;3.83;;;2.03;;
21103;SDS011;10710;53.398;-1.514;2023-03-09T15:52:11;6.03;;;2.30;;
21103;SDS011;10710;53.398;-1.514;2023-03-09T15:54:42;4.87;;;2.50;;
21103;SDS011;10710;53.398;-1.514;2023-03-09T15:57:22;8.88;;;3.22;;
21103;SDS011;10710;53.398;-1.514;2023-03-09T15:59:48;7.32;;;3.28;;
21103;SDS011;10710;53.398;-1.514;2023-03-09T16:02:14;12.73;;;5.30;;
21103;SDS011;10710;53.398;-1.514;2023-03-09T16:04:40;7.03;;;4.32;;
21103;SDS011;10710;53.398;-1.514;2023-03-09T16:07:11;8.38;;;3.65;;
21103;SDS011;10710;53.398;-1.514;2023-03-09T16:09:39;8.90;;;3.92;;
21103;SDS011;10710;53.398;-1.514;2023-03-09T16:12:11;7.07;;;3.27;;
21103;SDS011;10710;53.398;-1.514;2023-03-09T16:14:40;10.45;;;4.25;;
21103;SDS011;10710;53.398;-1.514;2023-03-09T16:17:13;7.85;;;3.58;;
21103;SDS011;10710;53.398;-1.514;2023-03-09T16:19:41;6.95;;;3.40;;
21103;SDS011;10710;53.398;-1.514;2023-03-09T16:22:07;8.20;;;3.92;;
21103;SDS011;10710;53.398;-1.514;2023-03-09T16:27:15;10.80;;;3.38;;
21103;SDS011;10710;53.398;-1.514;2023-03-09T16:29:46;5.22;;;2.50;;
21103;SDS011;10710;53.398;-1.514;2023-03-09T16:32:16;6.55;;;2.80;;